createdAt,value
2019-01-09T00:01:00.920Z,93.89
2019-01-09T00:03:32.872Z,94.20
2019-01-09T00:06:04.754Z,94.13
2019-01-09T00:08:36.770Z,94.05
2019-01-09T00:11:09.330Z,94.22
2019-01-09T00:13:41.566Z,93.12
2019-01-09T00:16:13.602Z,93.35
2019-01-09T00:18:45.597Z,93.69
2019-01-09T00:21:17.942Z,93.45
2019-01-09T00:23:49.925Z,94.01
2019-01-09T00:26:21.883Z,94.55
2019-01-09T00:28:53.898Z,95.34
2019-01-09T00:31:25.830Z,95.18
2019-01-09T00:33:57.651Z,95.63
2019-01-09T00:36:29.528Z,95.44
2019-01-09T00:39:01.548Z,95.16
2019-01-09T00:41:34.422Z,95.17
2019-01-09T00:44:06.542Z,95.47
2019-01-09T00:46:38.764Z,95.30
2019-01-09T00:49:10.731Z,95.29
2019-01-09T00:51:42.646Z,95.46
2019-01-09T00:54:14.583Z,95.41
2019-01-09T00:56:46.932Z,94.56
2019-01-09T00:59:18.920Z,94.95
2019-01-09T01:02:19.313Z,94.69
2019-01-09T01:05:29.925Z,94.79
2019-01-09T01:09:03.530Z,94.26
2019-01-09T01:12:18.533Z,94.48
2019-01-09T01:15:37.277Z,94.89
2019-01-09T01:18:42.707Z,95.51
2019-01-09T01:21:46.650Z,95.23
2019-01-09T01:25:08.677Z,95.83
2019-01-09T01:28:13.929Z,96.33
2019-01-09T01:31:23.939Z,95.80
2019-01-09T01:35:23.297Z,95.99
2019-01-09T01:38:25.453Z,96.27
2019-01-09T01:41:20.700Z,96.50
2019-01-09T01:44:27.469Z,96.35
2019-01-09T01:48:06.305Z,96.13
2019-01-09T01:51:21.970Z,95.78
2019-01-09T01:54:36.615Z,95.63
2019-01-09T01:58:25.843Z,95.92
2019-01-09T02:02:08.350Z,95.31
2019-01-09T02:05:28.383Z,95.47
2019-01-09T02:08:58.885Z,95.40
2019-01-09T02:11:59.403Z,95.04
2019-01-09T02:15:14.761Z,95.98
2019-01-09T02:18:31.920Z,96.59
2019-01-09T02:21:33.592Z,96.29
2019-01-09T02:24:48.526Z,95.55
2019-01-09T02:27:36.557Z,96.31
2019-01-09T02:30:58.627Z,96.20
2019-01-09T02:33:30.363Z,96.68
2019-01-09T02:36:02.174Z,96.89
2019-01-09T02:38:33.921Z,96.80
2019-01-09T02:41:05.720Z,97.59
2019-01-09T02:43:37.537Z,97.63
2019-01-09T02:46:10.010Z,97.83
2019-01-09T02:48:42.010Z,98.08
2019-01-09T02:51:14.115Z,98.24
2019-01-09T02:53:45.998Z,97.80
2019-01-09T02:56:17.729Z,97.91
2019-01-09T02:58:49.549Z,97.91
2019-01-09T03:01:21.353Z,97.40
2019-01-09T03:03:53.416Z,97.74
2019-01-09T03:06:25.154Z,97.08
2019-01-09T03:08:56.962Z,96.96
2019-01-09T03:11:28.799Z,97.16
2019-01-09T03:14:00.618Z,97.35
2019-01-09T03:16:32.422Z,97.15
2019-01-09T03:19:04.233Z,97.55
2019-01-09T03:21:36.111Z,97.33
2019-01-09T03:24:08.001Z,96.87
2019-01-09T03:26:39.879Z,96.58
2019-01-09T03:29:11.688Z,96.61
2019-01-09T03:31:43.419Z,96.51
2019-01-09T03:34:15.307Z,96.04
2019-01-09T03:36:47.366Z,96.20
2019-01-09T03:39:19.252Z,96.04
2019-01-09T03:41:51.067Z,96.79
2019-01-09T03:44:23.204Z,96.47
2019-01-09T03:46:55.072Z,96.58
2019-01-09T03:49:26.931Z,96.86
2019-01-09T03:51:58.735Z,97.38
2019-01-09T03:54:30.707Z,97.58
2019-01-09T03:57:02.490Z,97.87
2019-01-09T03:59:34.213Z,97.79
2019-01-09T04:02:05.998Z,97.95
2019-01-09T04:04:37.782Z,98.02
2019-01-09T04:07:09.642Z,98.60
2019-01-09T04:09:41.424Z,98.54
2019-01-09T04:12:13.205Z,98.45
2019-01-09T04:14:44.916Z,98.74
2019-01-09T04:17:16.623Z,99.53
2019-01-09T04:19:48.328Z,99.36
2019-01-09T04:22:20.034Z,98.95
2019-01-09T04:24:51.818Z,98.89
2019-01-09T04:27:23.507Z,98.86
2019-01-09T04:29:55.469Z,98.91
2019-01-09T04:32:27.193Z,98.11
2019-01-09T04:34:58.903Z,98.30
2019-01-09T04:37:30.597Z,98.15
2019-01-09T04:40:02.307Z,98.72
2019-01-09T04:42:34.070Z,98.42
2019-01-09T04:45:06.215Z,98.88
2019-01-09T04:47:37.905Z,98.97
2019-01-09T04:50:10.427Z,98.31
2019-01-09T04:52:42.198Z,98.25
2019-01-09T04:55:13.909Z,97.88
2019-01-09T04:57:45.604Z,97.66
2019-01-09T05:00:17.320Z,97.56
2019-01-09T05:02:49.019Z,97.29
2019-01-09T05:05:20.731Z,97.33
2019-01-09T05:07:52.764Z,97.14
2019-01-09T05:10:24.475Z,97.24
2019-01-09T05:12:56.185Z,96.74
2019-01-09T05:15:27.979Z,95.73
2019-01-09T05:17:59.682Z,95.83
2019-01-09T05:20:32.362Z,95.05
2019-01-09T05:23:04.057Z,95.83
2019-01-09T05:25:35.771Z,95.80
2019-01-09T05:28:07.721Z,95.40
2019-01-09T05:30:39.690Z,95.03
2019-01-09T05:33:11.468Z,94.95
2019-01-09T05:35:43.186Z,95.27
2019-01-09T05:38:15.855Z,95.12
2019-01-09T05:40:47.558Z,94.83
2019-01-09T05:43:19.508Z,94.83
2019-01-09T05:45:51.284Z,95.61
2019-01-09T05:48:22.990Z,95.10
2019-01-09T05:50:54.697Z,94.39
2019-01-09T05:53:26.463Z,94.76
2019-01-09T05:55:58.252Z,94.40
2019-01-09T05:58:29.957Z,94.43
2019-01-09T06:01:01.674Z,95.08
2019-01-09T06:03:33.375Z,95.08
2019-01-09T06:06:05.410Z,94.63
2019-01-09T06:08:37.180Z,94.10
2019-01-09T06:11:10.002Z,94.06
2019-01-09T06:13:41.712Z,92.75
2019-01-09T06:16:13.436Z,92.88
2019-01-09T06:18:45.455Z,92.50
2019-01-09T06:21:17.169Z,93.18
2019-01-09T06:23:48.871Z,92.88
2019-01-09T06:26:20.588Z,92.51
2019-01-09T06:28:52.547Z,92.29
2019-01-09T06:31:24.258Z,92.84
2019-01-09T06:33:56.040Z,92.54
2019-01-09T06:36:27.829Z,92.52
2019-01-09T06:38:59.537Z,93.06
2019-01-09T06:41:31.586Z,93.37
2019-01-09T06:44:03.364Z,93.36
2019-01-09T06:46:35.068Z,92.88
2019-01-09T06:49:06.850Z,92.92
2019-01-09T06:51:39.076Z,92.38
2019-01-09T06:54:10.875Z,91.40
2019-01-09T06:56:42.809Z,91.03
2019-01-09T06:59:14.514Z,91.91
2019-01-09T07:01:46.225Z,91.54
2019-01-09T07:04:17.918Z,91.01
2019-01-09T07:06:49.650Z,90.63
2019-01-09T07:09:21.352Z,90.46
2019-01-09T07:11:53.059Z,90.40
2019-01-09T07:14:24.761Z,90.63
2019-01-09T07:16:56.801Z,90.32
2019-01-09T07:19:28.604Z,89.34
2019-01-09T07:22:00.397Z,90.20
2019-01-09T07:24:32.101Z,91.01
2019-01-09T07:27:03.903Z,91.07
2019-01-09T07:29:35.860Z,91.95
2019-01-09T07:32:07.669Z,92.96
2019-01-09T07:34:39.364Z,94.23
2019-01-09T07:37:11.423Z,95.46
2019-01-09T07:39:43.194Z,95.65
2019-01-09T07:42:14.909Z,95.94
2019-01-09T07:44:46.611Z,95.55
2019-01-09T07:47:18.481Z,95.47
2019-01-09T07:49:50.208Z,96.29
2019-01-09T07:52:21.932Z,95.78
2019-01-09T07:54:53.720Z,95.98
2019-01-09T07:57:25.599Z,95.75
2019-01-09T07:59:57.370Z,95.70
2019-01-09T08:02:29.154Z,95.08
2019-01-09T08:05:00.985Z,95.13
2019-01-09T08:07:32.702Z,95.42
2019-01-09T08:10:05.033Z,95.44
2019-01-09T08:12:36.759Z,95.75
2019-01-09T08:15:10.183Z,96.14
2019-01-09T08:17:41.885Z,96.30
2019-01-09T08:20:13.666Z,96.42
2019-01-09T08:22:45.443Z,96.61
2019-01-09T08:25:17.138Z,96.32
2019-01-09T08:27:48.848Z,96.15
2019-01-09T08:30:20.871Z,95.88
2019-01-09T08:32:52.583Z,95.59
2019-01-09T08:35:24.282Z,95.44
2019-01-09T08:38:02.611Z,96.60
2019-01-09T08:40:29.471Z,95.82
2019-01-09T08:43:01.274Z,96.50
2019-01-09T08:45:33.254Z,96.78
2019-01-09T08:48:04.960Z,97.02
2019-01-09T08:50:36.682Z,96.23
2019-01-09T08:53:09.326Z,96.37
2019-01-09T08:55:41.157Z,96.63
2019-01-09T08:58:12.957Z,95.51
2019-01-09T09:00:44.661Z,94.37
2019-01-09T09:03:16.643Z,94.23
2019-01-09T09:05:48.469Z,94.67
2019-01-09T09:08:21.481Z,95.17
2019-01-09T09:10:53.329Z,95.63
2019-01-09T09:13:44.284Z,97.09
2019-01-09T09:16:16.058Z,97.62
2019-01-09T09:18:47.925Z,98.27
2019-01-09T09:21:19.692Z,98.95
2019-01-09T09:23:51.796Z,97.97
2019-01-09T09:26:23.498Z,97.43
2019-01-09T09:28:55.285Z,96.55
2019-01-09T09:31:27.208Z,95.97
2019-01-09T09:33:58.940Z,95.72
2019-01-09T09:36:30.895Z,94.73
2019-01-09T09:39:02.611Z,94.12
2019-01-09T09:41:34.315Z,93.84
2019-01-09T09:44:06.256Z,94.54
2019-01-09T09:46:38.945Z,93.50
2019-01-09T09:49:10.808Z,92.98
2019-01-09T09:51:42.594Z,93.68
2019-01-09T09:54:14.376Z,93.87
2019-01-09T09:56:46.135Z,94.32
2019-01-09T09:59:17.844Z,94.44
2019-01-09T10:01:49.562Z,94.23
2019-01-09T10:04:21.269Z,94.11
2019-01-09T10:06:53.056Z,94.58
2019-01-09T10:09:24.757Z,93.86
2019-01-09T10:11:56.458Z,93.58
2019-01-09T10:14:28.339Z,94.14
2019-01-09T10:17:00.039Z,93.77
2019-01-09T10:19:31.990Z,93.19
2019-01-09T10:22:03.855Z,93.62
2019-01-09T10:24:35.562Z,92.83
2019-01-09T10:27:07.407Z,93.34
2019-01-09T10:29:39.125Z,93.97
2019-01-09T10:32:10.903Z,93.85
2019-01-09T10:34:42.595Z,93.93
2019-01-09T10:37:14.328Z,94.70
2019-01-09T10:39:46.516Z,93.81
2019-01-09T10:42:18.204Z,92.82
2019-01-09T10:44:49.921Z,93.78
2019-01-09T10:47:21.891Z,93.50
2019-01-09T10:49:53.610Z,93.81
2019-01-09T10:52:25.334Z,92.88
2019-01-09T10:54:57.113Z,91.80
2019-01-09T10:57:28.901Z,92.04
2019-01-09T11:00:01.585Z,92.48
2019-01-09T11:02:34.258Z,93.16
2019-01-09T11:05:07.879Z,92.30
2019-01-09T11:07:39.740Z,91.72
2019-01-09T11:10:12.346Z,92.49
2019-01-09T11:12:44.215Z,92.52
2019-01-09T11:15:16.238Z,93.61
2019-01-09T11:17:47.947Z,93.30
2019-01-09T11:20:21.628Z,92.61
2019-01-09T11:22:54.301Z,93.00
2019-01-09T11:25:28.564Z,93.21
2019-01-09T11:28:00.321Z,92.78
2019-01-09T11:30:32.018Z,92.52
2019-01-09T11:33:03.707Z,93.38
2019-01-09T11:35:35.656Z,93.16
2019-01-09T11:38:09.213Z,93.36
2019-01-09T11:40:40.997Z,93.74
2019-01-09T11:43:12.689Z,92.08
2019-01-09T11:45:45.430Z,93.49
2019-01-09T11:48:17.130Z,92.85
2019-01-09T11:50:48.846Z,92.30
2019-01-09T11:53:20.799Z,92.13
2019-01-09T11:55:52.601Z,91.88
2019-01-09T11:58:24.288Z,92.21
2019-01-09T12:00:56.006Z,92.08
2019-01-09T12:03:27.882Z,91.29
2019-01-09T12:05:59.585Z,91.53
2019-01-09T12:08:31.603Z,91.43
2019-01-09T12:11:03.471Z,90.97
2019-01-09T12:13:35.756Z,91.68
2019-01-09T12:16:08.407Z,91.89
2019-01-09T12:18:40.233Z,92.01
2019-01-09T12:21:16.677Z,92.51
2019-01-09T12:23:45.416Z,93.32
2019-01-09T12:26:17.129Z,93.07
2019-01-09T12:28:53.383Z,93.15
2019-01-09T12:31:22.288Z,92.46
2019-01-09T12:33:53.975Z,93.11
2019-01-09T12:36:25.833Z,93.24
2019-01-09T12:38:57.530Z,92.97
2019-01-09T12:41:29.229Z,93.04
2019-01-09T12:44:00.928Z,94.31
2019-01-09T12:46:32.629Z,93.82
2019-01-09T12:49:04.316Z,93.40
2019-01-09T12:51:36.041Z,93.44
2019-01-09T12:54:07.809Z,92.26
2019-01-09T12:56:39.518Z,92.56
2019-01-09T12:59:11.205Z,92.67
2019-01-09T13:01:42.910Z,93.47
2019-01-09T13:04:14.623Z,92.90
2019-01-09T13:06:46.324Z,93.64
2019-01-09T13:09:22.379Z,93.77
2019-01-09T13:11:51.415Z,93.76
2019-01-09T13:14:23.119Z,94.26
2019-01-09T13:16:54.829Z,94.70
2019-01-09T13:19:26.531Z,94.09
2019-01-09T13:21:58.227Z,93.96
2019-01-09T13:24:29.922Z,93.68
2019-01-09T13:27:01.625Z,94.24
2019-01-09T13:29:33.335Z,93.24
2019-01-09T13:32:05.201Z,93.62
2019-01-09T13:34:37.047Z,93.96
2019-01-09T13:37:09.775Z,92.89
2019-01-09T13:39:41.485Z,92.22
2019-01-09T13:42:13.197Z,92.26
2019-01-09T13:44:44.892Z,91.84
2019-01-09T13:47:16.616Z,92.49
2019-01-09T13:49:48.472Z,92.08
2019-01-09T13:52:20.205Z,92.22
2019-01-09T13:54:51.976Z,91.97
2019-01-09T13:57:24.150Z,92.07
2019-01-09T13:59:55.897Z,91.90
2019-01-09T14:02:27.676Z,93.06
2019-01-09T14:04:59.474Z,92.70
2019-01-09T14:07:31.256Z,93.28
2019-01-09T14:10:02.960Z,93.46
2019-01-09T14:12:34.680Z,92.86
2019-01-09T14:15:08.517Z,93.13
2019-01-09T14:17:40.294Z,93.34
2019-01-09T14:20:12.534Z,93.47
2019-01-09T14:22:46.597Z,93.38
2019-01-09T14:25:18.355Z,93.15
2019-01-09T14:27:50.060Z,93.08
2019-01-09T14:30:27.962Z,93.04
2019-01-09T14:32:59.676Z,93.38
2019-01-09T14:35:31.442Z,94.17
2019-01-09T14:38:03.229Z,93.66
2019-01-09T14:40:34.993Z,93.52
2019-01-09T14:43:06.854Z,93.55
2019-01-09T14:45:38.557Z,93.21
2019-01-09T14:48:10.528Z,93.64
2019-01-09T14:50:42.381Z,93.64
2019-01-09T14:53:14.162Z,94.05
2019-01-09T14:55:46.012Z,94.19
2019-01-09T14:58:17.725Z,94.71
2019-01-09T15:00:50.566Z,94.32
2019-01-09T15:03:22.358Z,94.64
2019-01-09T15:05:54.324Z,94.58
2019-01-09T15:08:26.037Z,94.25
2019-01-09T15:10:57.805Z,93.79
2019-01-09T15:13:29.845Z,93.82
2019-01-09T15:16:01.617Z,94.30
2019-01-09T15:18:33.389Z,94.18
2019-01-09T15:21:05.177Z,93.98
2019-01-09T15:23:36.899Z,93.96
2019-01-09T15:26:09.798Z,93.55
2019-01-09T15:28:42.171Z,93.96
2019-01-09T15:31:13.956Z,93.64
2019-01-09T15:33:45.916Z,93.66
2019-01-09T15:36:17.771Z,94.19
2019-01-09T15:38:49.549Z,94.27
2019-01-09T15:41:21.654Z,94.01
2019-01-09T15:43:53.422Z,94.12
2019-01-09T15:46:25.153Z,94.01
2019-01-09T15:48:57.189Z,93.71
2019-01-09T15:51:29.049Z,93.87
2019-01-09T15:54:00.859Z,93.87
2019-01-09T15:56:32.633Z,93.61
2019-01-09T15:59:04.603Z,93.32
2019-01-09T16:01:36.459Z,93.30
2019-01-09T16:04:09.479Z,93.65
2019-01-09T16:06:41.253Z,92.77
2019-01-09T16:09:13.060Z,93.52
2019-01-09T16:11:44.762Z,93.02
2019-01-09T16:14:16.476Z,92.78
2019-01-09T16:16:48.173Z,93.09
2019-01-09T16:19:19.945Z,93.55
2019-01-09T16:21:51.709Z,93.95
2019-01-09T16:24:23.584Z,92.78
2019-01-09T16:26:55.269Z,92.82
2019-01-09T16:29:28.001Z,92.98
2019-01-09T16:31:59.707Z,93.30
2019-01-09T16:34:31.485Z,93.13
2019-01-09T16:37:03.184Z,92.62
2019-01-09T16:39:35.048Z,93.36
2019-01-09T16:42:06.887Z,93.47
2019-01-09T16:44:38.595Z,93.57
2019-01-09T16:47:10.456Z,93.19
2019-01-09T16:49:42.251Z,93.37
2019-01-09T16:52:14.227Z,93.07
2019-01-09T16:54:45.957Z,92.83
2019-01-09T16:57:17.663Z,92.77
2019-01-09T16:59:49.629Z,93.03
2019-01-09T17:02:21.365Z,93.30
2019-01-09T17:04:53.078Z,93.67
2019-01-09T17:07:24.860Z,93.56
2019-01-09T17:09:56.641Z,94.13
2019-01-09T17:12:28.911Z,93.85
2019-01-09T17:15:00.616Z,93.69
2019-01-09T17:17:32.319Z,94.20
2019-01-09T17:20:04.819Z,93.84
2019-01-09T17:22:36.798Z,94.16
2019-01-09T17:25:09.463Z,94.15
2019-01-09T17:27:41.500Z,94.21
2019-01-09T17:30:25.401Z,94.35
2019-01-09T17:32:57.342Z,94.85
2019-01-09T17:35:29.211Z,95.19
2019-01-09T17:38:01.866Z,94.78
2019-01-09T17:40:40.896Z,94.77
2019-01-09T17:43:07.114Z,94.67
2019-01-09T17:45:38.826Z,94.29
2019-01-09T17:48:10.660Z,94.65
2019-01-09T17:50:42.907Z,95.17
2019-01-09T17:53:14.865Z,94.78
2019-01-09T17:55:46.568Z,94.38
2019-01-09T17:58:18.342Z,94.98
2019-01-09T18:00:50.418Z,94.47
2019-01-09T18:03:22.203Z,94.30
2019-01-09T18:05:54.884Z,94.61
2019-01-09T18:08:26.790Z,94.43
2019-01-09T18:10:59.193Z,94.89
2019-01-09T18:13:30.985Z,94.89
2019-01-09T18:16:03.034Z,95.49
2019-01-09T18:18:34.810Z,94.79
2019-01-09T18:21:06.968Z,94.43
2019-01-09T18:23:38.764Z,94.26
2019-01-09T18:26:10.627Z,94.57
2019-01-09T18:28:42.341Z,95.07
2019-01-09T18:32:03.288Z,95.12
2019-01-09T18:35:39.569Z,95.21
2019-01-09T18:38:51.044Z,95.05
2019-01-09T18:41:42.918Z,95.06
2019-01-09T18:44:58.541Z,94.55
2019-01-09T18:48:36.838Z,95.16
2019-01-09T18:52:14.699Z,94.65
2019-01-09T18:54:46.658Z,95.43
2019-01-09T18:57:18.389Z,94.69
2019-01-09T18:59:50.246Z,95.09
2019-01-09T19:02:22.193Z,95.12
2019-01-09T19:04:54.167Z,95.65
2019-01-09T19:07:26.126Z,95.94
2019-01-09T19:09:57.918Z,95.32
2019-01-09T19:12:29.650Z,95.04
2019-01-09T19:15:01.729Z,95.22
2019-01-09T19:17:33.508Z,94.44
2019-01-09T19:20:06.914Z,95.60
2019-01-09T19:22:38.709Z,94.71
2019-01-09T19:25:11.501Z,95.26
2019-01-09T19:27:43.383Z,94.21
2019-01-09T19:30:27.058Z,94.19
2019-01-09T19:32:59.017Z,94.71
2019-01-09T19:35:30.864Z,93.79
2019-01-09T19:38:02.726Z,93.69
2019-01-09T19:40:34.509Z,93.47
2019-01-09T19:43:07.440Z,94.02
2019-01-09T19:45:40.262Z,93.76
2019-01-09T19:48:12.208Z,92.93
2019-01-09T19:50:44.064Z,93.02
2019-01-09T19:53:16.044Z,92.59
2019-01-09T19:55:47.889Z,93.03
2019-01-09T19:58:19.994Z,92.87
2019-01-09T20:00:52.013Z,92.44
2019-01-09T20:03:23.799Z,92.43
2019-01-09T20:05:55.640Z,93.07
2019-01-09T20:08:27.516Z,92.29
2019-01-09T20:10:59.301Z,91.93
2019-01-09T20:13:31.266Z,92.12
2019-01-09T20:16:03.502Z,92.32
2019-01-09T20:18:35.315Z,92.24
2019-01-09T20:21:07.401Z,92.23
2019-01-09T20:23:39.118Z,92.64
2019-01-09T20:26:10.904Z,92.74
2019-01-09T20:28:42.685Z,92.73
2019-01-09T20:31:14.389Z,92.71
2019-01-09T20:33:46.187Z,92.34
2019-01-09T20:36:18.335Z,92.08
2019-01-09T20:38:50.085Z,91.99
2019-01-09T20:41:21.792Z,92.24
2019-01-09T20:43:53.614Z,93.03
2019-01-09T20:46:25.366Z,93.73
2019-01-09T20:48:57.168Z,94.12
2019-01-09T20:51:28.973Z,92.70
2019-01-09T20:54:00.849Z,92.90
2019-01-09T20:56:32.669Z,92.95
2019-01-09T20:59:04.637Z,93.51
2019-01-09T21:01:36.470Z,92.66
2019-01-09T21:04:09.429Z,92.64
2019-01-09T21:06:42.274Z,93.08
2019-01-09T21:09:14.245Z,92.51
2019-01-09T21:11:47.012Z,92.71
2019-01-09T21:14:18.802Z,92.55
2019-01-09T21:16:50.591Z,92.40
2019-01-09T21:19:22.373Z,92.41
2019-01-09T21:21:54.149Z,92.40
2019-01-09T21:24:26.265Z,92.67
2019-01-09T21:26:58.105Z,92.55
2019-01-09T21:29:31.201Z,92.57
2019-01-09T21:32:02.976Z,92.56
2019-01-09T21:34:34.702Z,93.23
2019-01-09T21:37:06.592Z,92.70
2019-01-09T21:39:38.384Z,92.69
2019-01-09T21:42:10.408Z,92.73
2019-01-09T21:44:42.144Z,92.94
2019-01-09T21:47:14.891Z,94.01
2019-01-09T21:49:46.994Z,94.59
2019-01-09T21:52:18.787Z,94.97
2019-01-09T21:54:50.585Z,94.77
2019-01-09T21:57:22.377Z,94.48
2019-01-09T21:59:54.141Z,94.45
2019-01-09T22:02:26.211Z,94.05
2019-01-09T22:04:58.035Z,94.70
2019-01-09T22:07:29.818Z,94.49
2019-01-09T22:10:01.519Z,94.48
2019-01-09T22:12:34.206Z,94.20
2019-01-09T22:15:09.077Z,94.51
2019-01-09T22:17:41.030Z,94.43
2019-01-09T22:20:13.272Z,93.96
2019-01-09T22:22:45.122Z,94.09
2019-01-09T22:25:17.042Z,94.09
2019-01-09T22:27:48.997Z,94.03
2019-01-09T22:30:26.134Z,94.32
2019-01-09T22:32:58.000Z,93.62
2019-01-09T22:35:29.792Z,93.72
2019-01-09T22:38:01.575Z,93.81
2019-01-09T22:40:33.341Z,93.60
2019-01-09T22:43:05.375Z,94.04
2019-01-09T22:45:37.138Z,93.56
2019-01-09T22:48:09.848Z,93.59
2019-01-09T22:50:41.652Z,93.52
2019-01-09T22:53:13.615Z,93.55
2019-01-09T22:55:45.458Z,93.94
2019-01-09T22:58:17.246Z,93.14
2019-01-09T23:01:05.818Z,92.92
2019-01-09T23:03:37.928Z,92.99
2019-01-09T23:06:10.176Z,94.13
2019-01-09T23:08:42.113Z,94.00
2019-01-09T23:11:13.894Z,94.76
2019-01-09T23:13:45.832Z,93.71
2019-01-09T23:16:17.780Z,93.75
2019-01-09T23:18:49.565Z,93.58
2019-01-09T23:21:21.413Z,93.52
2019-01-09T23:23:53.196Z,93.12
2019-01-09T23:26:24.999Z,93.38
2019-01-09T23:28:56.776Z,94.05
2019-01-09T23:31:29.549Z,94.64
2019-01-09T23:34:01.405Z,94.08
2019-01-09T23:36:33.264Z,95.42
2019-01-09T23:39:10.683Z,95.02
2019-01-09T23:41:42.540Z,94.89
2019-01-09T23:44:14.406Z,94.72
2019-01-09T23:46:46.176Z,94.96
2019-01-09T23:49:18.150Z,95.39
2019-01-09T23:51:52.967Z,95.27
2019-01-09T23:54:25.040Z,94.26
2019-01-09T23:56:56.755Z,94.64
2019-01-09T23:59:28.479Z,94.09
